sensor_id;sensor_type;location;lat;lon;timestamp;pressure;altitude;pressure_sealevel;temperature;humidity
81025;BME280;70500;50.292;6.666;2023-07-13T00:02:13;96445.66;;;24.96;38.76
81025;BME280;70500;50.292;6.666;2023-07-13T00:04:42;96445.44;;;24.94;38.98
81025;BME280;70500;50.292;6.666;2023-07-13T00:07:13;96443.94;;;24.93;38.98
81025;BME280;70500;50.292;6.666;2023-07-13T00:09:43;96454.97;;;24.93;38.24
81025;BME280;70500;50.292;6.666;2023-07-13T00:12:24;96447.22;;;24.92;38.31
81025;BME280;70500;50.292;6.666;2023-07-13T00:14:56;96452.47;;;24.90;38.37
81025;BME280;70500;50.292;6.666;2023-07-13T00:17:27;96442.00;;;24.88;38.54
81025;BME280;70500;50.292;6.666;2023-07-13T00:19:57;96448.00;;;24.87;38.73
81025;BME280;70500;50.292;6.666;2023-07-13T00:22:28;96450.53;;;24.85;38.55
81025;BME280;70500;50.292;6.666;2023-07-13T00:24:57;96436.75;;;24.85;38.27
81025;BME280;70500;50.292;6.666;2023-07-13T00:27:26;96445.03;;;24.85;38.23
81025;BME280;70500;50.292;6.666;2023-07-13T00:29:57;96436.53;;;24.83;38.12
81025;BME280;70500;50.292;6.666;2023-07-13T00:32:27;96432.06;;;24.80;38.14
81025;BME280;70500;50.292;6.666;2023-07-13T00:34:58;96432.56;;;24.78;38.35
81025;BME280;70500;50.292;6.666;2023-07-13T00:37:29;96431.81;;;24.78;38.30
81025;BME280;70500;50.292;6.666;2023-07-13T00:39:59;96425.56;;;24.77;38.00
81025;BME280;70500;50.292;6.666;2023-07-13T00:42:28;96426.81;;;24.76;38.51
81025;BME280;70500;50.292;6.666;2023-07-13T00:45:05;96427.34;;;24.75;38.09
81025;BME280;70500;50.292;6.666;2023-07-13T00:47:34;96424.34;;;24.73;38.39
81025;BME280;70500;50.292;6.666;2023-07-13T00:50:07;96421.59;;;24.73;38.10
81025;BME280;70500;50.292;6.666;2023-07-13T00:52:45;96429.63;;;24.70;37.80
81025;BME280;70500;50.292;6.666;2023-07-13T00:55:16;96428.88;;;24.70;38.39
81025;BME280;70500;50.292;6.666;2023-07-13T00:57:46;96424.41;;;24.67;38.90
81025;BME280;70500;50.292;6.666;2023-07-13T01:00:15;96422.91;;;24.66;37.99
81025;BME280;70500;50.292;6.666;2023-07-13T01:02:46;96420.16;;;24.66;38.40
81025;BME280;70500;50.292;6.666;2023-07-13T01:05:19;96411.69;;;24.64;38.66
81025;BME280;70500;50.292;6.666;2023-07-13T01:07:51;96422.69;;;24.64;39.82
81025;BME280;70500;50.292;6.666;2023-07-13T01:10:22;96422.69;;;24.64;39.90
81025;BME280;70500;50.292;6.666;2023-07-13T01:12:53;96426.47;;;24.61;40.12
81025;BME280;70500;50.292;6.666;2023-07-13T01:15:36;96426.25;;;24.59;40.67
81025;BME280;70500;50.292;6.666;2023-07-13T01:18:08;96428.47;;;24.60;40.53
81025;BME280;70500;50.292;6.666;2023-07-13T01:20:38;96428.47;;;24.60;41.02
81025;BME280;70500;50.292;6.666;2023-07-13T01:23:11;96428.47;;;24.60;40.85
81025;BME280;70500;50.292;6.666;2023-07-13T01:25:40;96430.50;;;24.60;41.35
81025;BME280;70500;50.292;6.666;2023-07-13T01:28:09;96420.97;;;24.61;41.69
81025;BME280;70500;50.292;6.666;2023-07-13T01:30:40;96429.50;;;24.57;41.46
81025;BME280;70500;50.292;6.666;2023-07-13T01:33:09;96433.47;;;24.62;41.83
81025;BME280;70500;50.292;6.666;2023-07-13T01:35:39;96427.28;;;24.56;42.11
81025;BME280;70500;50.292;6.666;2023-07-13T01:38:10;96433.16;;;24.65;42.01
81025;BME280;70500;50.292;6.666;2023-07-13T01:40:42;96427.75;;;24.60;42.16
81025;BME280;70500;50.292;6.666;2023-07-13T01:43:12;96422.69;;;24.64;42.47
81025;BME280;70500;50.292;6.666;2023-07-13T01:45:41;96427.97;;;24.62;42.07
81025;BME280;70500;50.292;6.666;2023-07-13T01:48:13;96421.25;;;24.57;42.42
81025;BME280;70500;50.292;6.666;2023-07-13T01:50:42;96430.22;;;24.63;42.67
81025;BME280;70500;50.292;6.666;2023-07-13T01:53:14;96426.41;;;24.66;43.03
81025;BME280;70500;50.292;6.666;2023-07-13T01:55:43;96430.41;;;24.65;42.85
81025;BME280;70500;50.292;6.666;2023-07-13T01:58:12;96431.72;;;24.64;42.74
81025;BME280;70500;50.292;6.666;2023-07-13T02:00:41;96438.25;;;24.61;43.10
81025;BME280;70500;50.292;6.666;2023-07-13T02:03:10;96439.25;;;24.58;43.23
81025;BME280;70500;50.292;6.666;2023-07-13T02:05:39;96438.00;;;24.59;43.67
81025;BME280;70500;50.292;6.666;2023-07-13T02:08:09;96443.50;;;24.59;43.45
81025;BME280;70500;50.292;6.666;2023-07-13T02:10:40;96442.47;;;24.62;43.71
81025;BME280;70500;50.292;6.666;2023-07-13T02:13:09;96443.50;;;24.59;43.85
81025;BME280;70500;50.292;6.666;2023-07-13T02:15:39;96449.75;;;24.60;44.13
81025;BME280;70500;50.292;6.666;2023-07-13T02:18:09;96445.56;;;24.53;44.21
81025;BME280;70500;50.292;6.666;2023-07-13T02:20:38;96443.75;;;24.61;44.04
81025;BME280;70500;50.292;6.666;2023-07-13T02:23:07;96446.03;;;24.57;44.04
81025;BME280;70500;50.292;6.666;2023-07-13T02:25:37;96445.28;;;24.57;44.35
81025;BME280;70500;50.292;6.666;2023-07-13T02:28:07;96442.28;;;24.55;44.14
81025;BME280;70500;50.292;6.666;2023-07-13T02:30:36;96445.56;;;24.53;44.08
81025;BME280;70500;50.292;6.666;2023-07-13T02:33:06;96450.28;;;24.58;44.65
81025;BME280;70500;50.292;6.666;2023-07-13T02:35:35;96448.78;;;24.57;44.63
81025;BME280;70500;50.292;6.666;2023-07-13T02:38:04;96451.28;;;24.55;44.64
81025;BME280;70500;50.292;6.666;2023-07-13T02:40:33;96447.03;;;24.54;44.89
81025;BME280;70500;50.292;6.666;2023-07-13T02:43:03;96452.56;;;24.54;44.36
81025;BME280;70500;50.292;6.666;2023-07-13T02:45:33;96461.31;;;24.53;44.61
81025;BME280;70500;50.292;6.666;2023-07-13T02:48:03;96456.53;;;24.59;44.85
81025;BME280;70500;50.292;6.666;2023-07-13T02:50:33;96454.28;;;24.57;44.34
81025;BME280;70500;50.292;6.666;2023-07-13T02:53:02;96455.53;;;24.56;44.59
81025;BME280;70500;50.292;6.666;2023-07-13T02:55:32;96464.31;;;24.55;45.09
81025;BME280;70500;50.292;6.666;2023-07-13T02:58:01;96461.56;;;24.55;45.13
81025;BME280;70500;50.292;6.666;2023-07-13T03:00:30;96447.31;;;24.51;45.21
81025;BME280;70500;50.292;6.666;2023-07-13T03:03:00;96453.09;;;24.47;44.99
81025;BME280;70500;50.292;6.666;2023-07-13T03:05:30;96456.66;;;24.42;45.27
81025;BME280;70500;50.292;6.666;2023-07-13T03:07:59;96455.84;;;24.47;45.09
81025;BME280;70500;50.292;6.666;2023-07-13T03:10:29;96451.59;;;24.46;45.16
81025;BME280;70500;50.292;6.666;2023-07-13T03:12:59;96453.91;;;24.42;45.58
81025;BME280;70500;50.292;6.666;2023-07-13T03:15:29;96452.91;;;24.45;45.39
81025;BME280;70500;50.292;6.666;2023-07-13T03:18:00;96452.66;;;24.43;45.70
81025;BME280;70500;50.292;6.666;2023-07-13T03:20:32;96448.66;;;24.44;45.38
81025;BME280;70500;50.292;6.666;2023-07-13T03:23:02;96452.34;;;24.47;45.33
81025;BME280;70500;50.292;6.666;2023-07-13T03:25:32;96452.94;;;24.40;45.79
81025;BME280;70500;50.292;6.666;2023-07-13T03:28:02;96455.97;;;24.36;45.71
81025;BME280;70500;50.292;6.666;2023-07-13T03:30:33;96462.44;;;24.39;45.85
81025;BME280;70500;50.292;6.666;2023-07-13T03:33:04;96464.16;;;24.42;45.75
81025;BME280;70500;50.292;6.666;2023-07-13T03:35:40;96474.38;;;24.47;45.50
81025;BME280;70500;50.292;6.666;2023-07-13T03:38:10;96474.91;;;24.45;45.61
81025;BME280;70500;50.292;6.666;2023-07-13T03:40:40;96477.66;;;24.45;45.62
81025;BME280;70500;50.292;6.666;2023-07-13T03:43:09;96466.94;;;24.42;45.85
81025;BME280;70500;50.292;6.666;2023-07-13T03:45:38;96469.69;;;24.42;45.50
81025;BME280;70500;50.292;6.666;2023-07-13T03:48:09;96482.97;;;24.38;46.39
81025;BME280;70500;50.292;6.666;2023-07-13T03:50:38;96477.47;;;24.38;45.57
81025;BME280;70500;50.292;6.666;2023-07-13T03:53:07;96480.44;;;24.40;45.79
81025;BME280;70500;50.292;6.666;2023-07-13T03:55:37;96480.44;;;24.40;46.25
81025;BME280;70500;50.292;6.666;2023-07-13T03:58:26;96478.44;;;24.40;45.81
81025;BME280;70500;50.292;6.666;2023-07-13T04:01:02;96481.94;;;24.41;46.19
81025;BME280;70500;50.292;6.666;2023-07-13T04:03:33;96476.47;;;24.35;46.43
81025;BME280;70500;50.292;6.666;2023-07-13T04:06:05;96477.22;;;24.35;45.96
81025;BME280;70500;50.292;6.666;2023-07-13T04:08:36;96470.94;;;24.41;46.31
81025;BME280;70500;50.292;6.666;2023-07-13T04:11:06;96475.19;;;24.42;46.44
81025;BME280;70500;50.292;6.666;2023-07-13T04:13:36;96475.19;;;24.42;46.44
81025;BME280;70500;50.292;6.666;2023-07-13T04:16:05;96475.72;;;24.34;46.20
81025;BME280;70500;50.292;6.666;2023-07-13T04:18:35;96469.19;;;24.38;45.23
81025;BME280;70500;50.292;6.666;2023-07-13T04:21:05;96468.50;;;24.31;45.77
81025;BME280;70500;50.292;6.666;2023-07-13T04:23:34;96478.28;;;24.27;44.14
81025;BME280;70500;50.292;6.666;2023-07-13T04:26:05;96481.69;;;24.39;43.71
81025;BME280;70500;50.292;6.666;2023-07-13T04:28:34;96479.44;;;24.43;43.57
81025;BME280;70500;50.292;6.666;2023-07-13T04:31:04;96483.94;;;24.40;43.07
81025;BME280;70500;50.292;6.666;2023-07-13T04:33:33;96485.75;;;24.32;43.31
81025;BME280;70500;50.292;6.666;2023-07-13T04:36:04;96481.78;;;24.27;43.23
81025;BME280;70500;50.292;6.666;2023-07-13T04:38:33;96495.53;;;24.27;42.36
81025;BME280;70500;50.292;6.666;2023-07-13T04:41:06;96492.56;;;24.25;42.15
81025;BME280;70500;50.292;6.666;2023-07-13T04:43:36;96495.81;;;24.24;41.85
81025;BME280;70500;50.292;6.666;2023-07-13T04:46:08;96499.81;;;24.23;41.67
81025;BME280;70500;50.292;6.666;2023-07-13T04:48:42;96488.06;;;24.22;41.38
81025;BME280;70500;50.292;6.666;2023-07-13T04:51:12;96496.84;;;24.21;40.74
81025;BME280;70500;50.292;6.666;2023-07-13T04:53:41;96493.31;;;24.26;41.60
81025;BME280;70500;50.292;6.666;2023-07-13T04:56:10;96491.06;;;24.24;41.09
81025;BME280;70500;50.292;6.666;2023-07-13T04:58:40;96496.06;;;24.26;41.22
81025;BME280;70500;50.292;6.666;2023-07-13T05:01:10;96495.75;;;24.29;41.16
81025;BME280;70500;50.292;6.666;2023-07-13T05:03:39;96498.06;;;24.25;40.97
81025;BME280;70500;50.292;6.666;2023-07-13T05:06:09;96502.81;;;24.25;41.59
81025;BME280;70500;50.292;6.666;2023-07-13T05:08:40;96505.56;;;24.25;41.02
81025;BME280;70500;50.292;6.666;2023-07-13T05:11:09;96505.78;;;24.27;40.90
81025;BME280;70500;50.292;6.666;2023-07-13T05:13:39;96509.06;;;24.25;40.89
81025;BME280;70500;50.292;6.666;2023-07-13T05:16:08;96510.03;;;24.28;41.51
81025;BME280;70500;50.292;6.666;2023-07-13T05:18:37;96506.81;;;24.24;41.56
81025;BME280;70500;50.292;6.666;2023-07-13T05:21:11;96509.06;;;24.25;41.33
81025;BME280;70500;50.292;6.666;2023-07-13T05:23:42;96505.56;;;24.25;41.09
81025;BME280;70500;50.292;6.666;2023-07-13T05:26:12;96508.75;;;24.29;40.88
81025;BME280;70500;50.292;6.666;2023-07-13T05:28:41;96508.03;;;24.28;40.83
81025;BME280;70500;50.292;6.666;2023-07-13T05:31:10;96505.06;;;24.26;40.75
81025;BME280;70500;50.292;6.666;2023-07-13T05:33:40;96513.88;;;24.14;40.84
81025;BME280;70500;50.292;6.666;2023-07-13T05:36:09;96509.63;;;24.13;41.53
81025;BME280;70500;50.292;6.666;2023-07-13T05:38:38;96510.09;;;24.17;41.30
81025;BME280;70500;50.292;6.666;2023-07-13T05:41:09;96518.41;;;24.06;41.35
81025;BME280;70500;50.292;6.666;2023-07-13T05:43:38;96512.41;;;24.07;42.28
81025;BME280;70500;50.292;6.666;2023-07-13T05:46:07;96515.06;;;24.24;42.13
81025;BME280;70500;50.292;6.666;2023-07-13T05:48:37;96512.09;;;24.22;42.00
81025;BME280;70500;50.292;6.666;2023-07-13T05:51:06;96521.63;;;24.15;42.39
81025;BME280;70500;50.292;6.666;2023-07-13T05:53:35;96515.81;;;24.24;42.05
81025;BME280;70500;50.292;6.666;2023-07-13T05:56:04;96521.31;;;24.24;41.94
81025;BME280;70500;50.292;6.666;2023-07-13T05:58:35;96522.25;;;24.32;41.92
81025;BME280;70500;50.292;6.666;2023-07-13T06:01:06;96529.56;;;24.24;41.84
81025;BME280;70500;50.292;6.666;2023-07-13T06:03:38;96522.28;;;24.27;41.98
81025;BME280;70500;50.292;6.666;2023-07-13T06:06:09;96527.13;;;24.15;40.67
81025;BME280;70500;50.292;6.666;2023-07-13T06:08:39;96524.84;;;24.19;40.75
81025;BME280;70500;50.292;6.666;2023-07-13T06:11:13;96529.34;;;24.22;41.47
81025;BME280;70500;50.292;6.666;2023-07-13T06:13:45;96524.31;;;24.26;40.56
81025;BME280;70500;50.292;6.666;2023-07-13T06:16:15;96522.28;;;24.27;40.96
81025;BME280;70500;50.292;6.666;2023-07-13T06:18:45;96523.78;;;24.28;41.19
81025;BME280;70500;50.292;6.666;2023-07-13T06:21:16;96527.56;;;24.25;41.13
81025;BME280;70500;50.292;6.666;2023-07-13T06:23:47;96526.34;;;24.20;41.31
81025;BME280;70500;50.292;6.666;2023-07-13T06:26:17;96530.09;;;24.23;41.60
81025;BME280;70500;50.292;6.666;2023-07-13T06:28:48;96534.84;;;24.22;41.53
81025;BME280;70500;50.292;6.666;2023-07-13T06:31:17;96535.59;;;24.23;41.34
81025;BME280;70500;50.292;6.666;2023-07-13T06:33:46;96539.03;;;24.29;41.88
81025;BME280;70500;50.292;6.666;2023-07-13T06:36:15;96542.25;;;24.33;41.04
81025;BME280;70500;50.292;6.666;2023-07-13T06:38:44;96543.56;;;24.26;41.15
81025;BME280;70500;50.292;6.666;2023-07-13T06:41:14;96544.09;;;24.19;41.84
81025;BME280;70500;50.292;6.666;2023-07-13T06:43:43;96542.59;;;24.18;39.14
81025;BME280;70500;50.292;6.666;2023-07-13T06:46:13;96542.13;;;24.09;38.76
81025;BME280;70500;50.292;6.666;2023-07-13T06:48:42;96544.94;;;23.97;40.04
81025;BME280;70500;50.292;6.666;2023-07-13T06:51:11;96545.41;;;24.07;39.72
81025;BME280;70500;50.292;6.666;2023-07-13T06:53:41;96548.19;;;24.01;39.82
81025;BME280;70500;50.292;6.666;2023-07-13T06:56:11;96548.88;;;24.08;40.12
81025;BME280;70500;50.292;6.666;2023-07-13T06:58:40;96549.88;;;24.10;40.11
81025;BME280;70500;50.292;6.666;2023-07-13T07:01:09;96549.41;;;24.06;39.79
81025;BME280;70500;50.292;6.666;2023-07-13T07:03:40;96553.13;;;24.14;40.08
81025;BME280;70500;50.292;6.666;2023-07-13T07:06:15;96549.84;;;24.21;40.61
81025;BME280;70500;50.292;6.666;2023-07-13T07:08:44;96542.09;;;24.20;40.01
81025;BME280;70500;50.292;6.666;2023-07-13T07:11:16;96546.13;;;24.13;40.61
81025;BME280;70500;50.292;6.666;2023-07-13T07:13:46;96549.13;;;24.15;40.42
81025;BME280;70500;50.292;6.666;2023-07-13T07:16:19;96558.56;;;24.25;40.69
81025;BME280;70500;50.292;6.666;2023-07-13T07:18:50;96556.88;;;24.17;40.61
81025;BME280;70500;50.292;6.666;2023-07-13T07:21:19;96548.63;;;24.17;40.78
81025;BME280;70500;50.292;6.666;2023-07-13T07:23:52;96554.00;;;24.33;40.26
81025;BME280;70500;50.292;6.666;2023-07-13T07:26:21;96555.78;;;24.31;41.32
81025;BME280;70500;50.292;6.666;2023-07-13T07:28:54;96554.84;;;24.23;40.40
81025;BME280;70500;50.292;6.666;2023-07-13T07:31:26;96555.13;;;24.14;40.55
81025;BME280;70500;50.292;6.666;2023-07-13T07:33:59;96560.63;;;24.14;40.57
81025;BME280;70500;50.292;6.666;2023-07-13T07:36:29;96559.69;;;24.00;38.47
81025;BME280;70500;50.292;6.666;2023-07-13T07:39:01;96564.25;;;23.86;38.67
81025;BME280;70500;50.292;6.666;2023-07-13T07:41:30;96562.25;;;23.87;39.46
81025;BME280;70500;50.292;6.666;2023-07-13T07:44:02;96569.28;;;23.77;38.60
81025;BME280;70500;50.292;6.666;2023-07-13T07:46:31;96556.25;;;23.83;38.82
81025;BME280;70500;50.292;6.666;2023-07-13T07:49:02;96561.28;;;23.79;38.68
81025;BME280;70500;50.292;6.666;2023-07-13T07:51:31;96556.84;;;23.64;39.41
81025;BME280;70500;50.292;6.666;2023-07-13T07:54:00;96572.53;;;23.69;39.04
81025;BME280;70500;50.292;6.666;2023-07-13T07:56:29;96569.31;;;23.65;38.04
81025;BME280;70500;50.292;6.666;2023-07-13T07:59:01;96571.84;;;23.63;37.97
81025;BME280;70500;50.292;6.666;2023-07-13T08:01:33;96578.84;;;23.59;37.66
81025;BME280;70500;50.292;6.666;2023-07-13T08:04:06;96574.84;;;23.54;37.97
81025;BME280;70500;50.292;6.666;2023-07-13T08:06:57;96573.84;;;23.52;38.32
81025;BME280;70500;50.292;6.666;2023-07-13T08:09:26;96574.59;;;23.52;37.88
81025;BME280;70500;50.292;6.666;2023-07-13T08:11:55;96572.59;;;23.53;38.34
81025;BME280;70500;50.292;6.666;2023-07-13T08:14:27;96567.84;;;23.53;38.09
81025;BME280;70500;50.292;6.666;2023-07-13T08:17:13;96575.59;;;23.60;37.72
81025;BME280;70500;50.292;6.666;2023-07-13T08:19:44;96568.59;;;23.59;37.96
81025;BME280;70500;50.292;6.666;2023-07-13T08:22:13;96570.81;;;23.66;37.64
81025;BME280;70500;50.292;6.666;2023-07-13T08:24:42;96570.84;;;23.61;37.61
81025;BME280;70500;50.292;6.666;2023-07-13T08:27:11;96565.09;;;23.59;37.70
81025;BME280;70500;50.292;6.666;2023-07-13T08:29:41;96562.59;;;23.55;37.52
81025;BME280;70500;50.292;6.666;2023-07-13T08:32:10;96565.09;;;23.64;36.98
81025;BME280;70500;50.292;6.666;2023-07-13T08:34:39;96560.06;;;23.68;36.76
81025;BME280;70500;50.292;6.666;2023-07-13T08:37:10;96567.53;;;23.79;36.98
81025;BME280;70500;50.292;6.666;2023-07-13T08:39:39;96561.25;;;23.84;37.28
81025;BME280;70500;50.292;6.666;2023-07-13T08:42:16;96559.50;;;23.87;37.02
81025;BME280;70500;50.292;6.666;2023-07-13T08:45:00;96565.97;;;23.89;37.08
81025;BME280;70500;50.292;6.666;2023-07-13T08:47:38;96564.22;;;23.92;37.31
81025;BME280;70500;50.292;6.666;2023-07-13T08:50:13;96559.44;;;23.98;37.97
81025;BME280;70500;50.292;6.666;2023-07-13T08:52:45;96559.94;;;24.02;38.11
81025;BME280;70500;50.292;6.666;2023-07-13T08:55:18;96555.66;;;24.07;37.85
81025;BME280;70500;50.292;6.666;2023-07-13T08:57:56;96560.88;;;24.10;38.30
81025;BME280;70500;50.292;6.666;2023-07-13T09:00:39;96574.88;;;24.12;38.40
81025;BME280;70500;50.292;6.666;2023-07-13T09:03:20;96563.13;;;24.17;38.76
81025;BME280;70500;50.292;6.666;2023-07-13T09:05:53;96563.34;;;24.19;38.55
81025;BME280;70500;50.292;6.666;2023-07-13T09:08:41;96570.34;;;24.26;39.00
81025;BME280;70500;50.292;6.666;2023-07-13T09:11:28;96568.78;;;24.30;38.97
81025;BME280;70500;50.292;6.666;2023-07-13T09:14:15;96562.03;;;24.31;39.45
81025;BME280;70500;50.292;6.666;2023-07-13T09:16:54;96567.78;;;24.28;38.08
81025;BME280;70500;50.292;6.666;2023-07-13T09:19:30;96566.09;;;24.19;37.87
81025;BME280;70500;50.292;6.666;2023-07-13T09:22:05;96557.38;;;24.15;36.87
81025;BME280;70500;50.292;6.666;2023-07-13T09:24:54;96563.88;;;24.18;37.64
81025;BME280;70500;50.292;6.666;2023-07-13T09:27:31;96573.59;;;24.19;36.93
81025;BME280;70500;50.292;6.666;2023-07-13T09:30:22;96565.88;;;24.17;36.73
81025;BME280;70500;50.292;6.666;2023-07-13T09:32:53;96574.13;;;24.17;36.73
81025;BME280;70500;50.292;6.666;2023-07-13T09:35:26;96575.84;;;24.20;36.52
81025;BME280;70500;50.292;6.666;2023-07-13T09:38:11;96570.34;;;24.20;36.56
81025;BME280;70500;50.292;6.666;2023-07-13T09:40:53;96578.88;;;24.17;36.42
81025;BME280;70500;50.292;6.666;2023-07-13T09:43:27;96562.88;;;24.15;36.33
81025;BME280;70500;50.292;6.666;2023-07-13T09:45:56;96568.63;;;24.17;36.35
81025;BME280;70500;50.292;6.666;2023-07-13T09:48:34;96567.09;;;24.22;36.22
81025;BME280;70500;50.292;6.666;2023-07-13T09:51:13;96573.84;;;24.21;36.59
81025;BME280;70500;50.292;6.666;2023-07-13T09:53:43;96568.34;;;24.21;36.25
81025;BME280;70500;50.292;6.666;2023-07-13T09:56:22;96567.84;;;24.22;35.94
81025;BME280;70500;50.292;6.666;2023-07-13T09:58:51;96561.09;;;24.23;36.14
81025;BME280;70500;50.292;6.666;2023-07-13T10:01:32;96558.84;;;24.22;35.93
81025;BME280;70500;50.292;6.666;2023-07-13T10:04:11;96562.09;;;24.20;35.76
81025;BME280;70500;50.292;6.666;2023-07-13T10:06:41;96559.38;;;24.15;35.96
81025;BME280;70500;50.292;6.666;2023-07-13T10:09:15;96561.13;;;24.12;36.49
81025;BME280;70500;50.292;6.666;2023-07-13T10:11:45;96565.38;;;24.13;35.87
81025;BME280;70500;50.292;6.666;2023-07-13T10:14:17;96568.13;;;24.08;36.25
81025;BME280;70500;50.292;6.666;2023-07-13T10:16:47;96568.66;;;24.06;36.97
81025;BME280;70500;50.292;6.666;2023-07-13T10:19:23;96571.69;;;23.97;35.74
81025;BME280;70500;50.292;6.666;2023-07-13T10:21:55;96569.47;;;23.90;36.32
81025;BME280;70500;50.292;6.666;2023-07-13T10:24:31;96573.75;;;23.80;35.76
81025;BME280;70500;50.292;6.666;2023-07-13T10:27:10;96588.28;;;23.75;35.50
81025;BME280;70500;50.292;6.666;2023-07-13T10:29:55;96586.03;;;23.73;35.78
81025;BME280;70500;50.292;6.666;2023-07-13T10:32:28;96582.56;;;23.67;35.76
81025;BME280;70500;50.292;6.666;2023-07-13T10:34:57;96592.81;;;23.66;36.32
81025;BME280;70500;50.292;6.666;2023-07-13T10:37:34;96594.28;;;23.73;37.41
81025;BME280;70500;50.292;6.666;2023-07-13T10:40:14;96592.25;;;23.79;37.15
81025;BME280;70500;50.292;6.666;2023-07-13T10:42:51;96598.56;;;23.68;36.38
81025;BME280;70500;50.292;6.666;2023-07-13T10:45:24;96586.28;;;23.69;36.60
81025;BME280;70500;50.292;6.666;2023-07-13T10:47:55;96582.78;;;23.75;36.96
81025;BME280;70500;50.292;6.666;2023-07-13T10:50:27;96589.25;;;23.77;36.15
81025;BME280;70500;50.292;6.666;2023-07-13T10:53:02;96596.00;;;23.82;36.76
81025;BME280;70500;50.292;6.666;2023-07-13T10:55:35;96596.50;;;23.86;36.91
81025;BME280;70500;50.292;6.666;2023-07-13T10:58:18;96597.47;;;23.88;37.20
81025;BME280;70500;50.292;6.666;2023-07-13T11:00:53;96594.50;;;23.86;37.37
81025;BME280;70500;50.292;6.666;2023-07-13T11:03:27;96607.25;;;23.84;36.99
81025;BME280;70500;50.292;6.666;2023-07-13T11:06:08;96606.50;;;23.78;36.23
81025;BME280;70500;50.292;6.666;2023-07-13T11:08:52;96602.50;;;23.79;36.90
81025;BME280;70500;50.292;6.666;2023-07-13T11:11:38;96609.50;;;23.74;36.95
81025;BME280;70500;50.292;6.666;2023-07-13T11:14:27;96606.00;;;23.74;36.44
81025;BME280;70500;50.292;6.666;2023-07-13T11:16:57;96612.28;;;23.68;36.38
81025;BME280;70500;50.292;6.666;2023-07-13T11:19:48;96612.00;;;23.72;36.27
81025;BME280;70500;50.292;6.666;2023-07-13T11:22:24;96607.75;;;23.71;36.94
81025;BME280;70500;50.292;6.666;2023-07-13T11:24:59;96609.81;;;23.65;35.90
81025;BME280;70500;50.292;6.666;2023-07-13T11:27:39;96615.53;;;23.67;36.46
81025;BME280;70500;50.292;6.666;2023-07-13T11:30:31;96615.53;;;23.67;35.86
81025;BME280;70500;50.292;6.666;2023-07-13T11:33:12;96619.28;;;23.64;36.41
81025;BME280;70500;50.292;6.666;2023-07-13T11:35:50;96613.06;;;23.63;36.74
81025;BME280;70500;50.292;6.666;2023-07-13T11:38:22;96612.03;;;23.66;35.74
81025;BME280;70500;50.292;6.666;2023-07-13T11:40:55;96615.28;;;23.65;35.91
81025;BME280;70500;50.292;6.666;2023-07-13T11:43:25;96617.28;;;23.64;36.39
81025;BME280;70500;50.292;6.666;2023-07-13T11:45:55;96609.53;;;23.68;35.69
81025;BME280;70500;50.292;6.666;2023-07-13T11:48:28;96613.25;;;23.77;36.18
81025;BME280;70500;50.292;6.666;2023-07-13T11:51:03;96613.75;;;23.81;36.32
81025;BME280;70500;50.292;6.666;2023-07-13T11:53:39;96620.47;;;23.85;36.10
81025;BME280;70500;50.292;6.666;2023-07-13T11:56:09;96610.47;;;23.88;35.81
81025;BME280;70500;50.292;6.666;2023-07-13T11:58:39;96610.94;;;23.92;36.42
81025;BME280;70500;50.292;6.666;2023-07-13T12:01:20;96617.22;;;23.87;35.94
81025;BME280;70500;50.292;6.666;2023-07-13T12:03:51;96607.50;;;23.86;36.33
81025;BME280;70500;50.292;6.666;2023-07-13T12:06:26;96610.75;;;23.84;36.17
81025;BME280;70500;50.292;6.666;2023-07-13T12:08:58;96606.44;;;23.94;35.96
81025;BME280;70500;50.292;6.666;2023-07-13T12:11:28;96615.41;;;24.06;35.63
81025;BME280;70500;50.292;6.666;2023-07-13T12:13:58;96608.38;;;24.16;35.90
81025;BME280;70500;50.292;6.666;2023-07-13T12:16:31;96607.13;;;24.17;36.26
81025;BME280;70500;50.292;6.666;2023-07-13T12:19:02;96609.59;;;24.21;36.40
81025;BME280;70500;50.292;6.666;2023-07-13T12:21:33;96614.59;;;24.22;36.73
81025;BME280;70500;50.292;6.666;2023-07-13T12:24:03;96624.59;;;24.25;36.48
81025;BME280;70500;50.292;6.666;2023-07-13T12:26:33;96628.31;;;24.28;37.04
81025;BME280;70500;50.292;6.666;2023-07-13T12:29:05;96627.81;;;24.29;37.12
81025;BME280;70500;50.292;6.666;2023-07-13T12:31:40;96627.56;;;24.27;36.91
81025;BME280;70500;50.292;6.666;2023-07-13T12:34:12;96634.53;;;24.34;37.63
81025;BME280;70500;50.292;6.666;2023-07-13T12:36:47;96630.56;;;24.29;37.75
81025;BME280;70500;50.292;6.666;2023-07-13T12:39:20;96634.28;;;24.32;38.47
81025;BME280;70500;50.292;6.666;2023-07-13T12:41:53;96636.53;;;24.39;38.25
81025;BME280;70500;50.292;6.666;2023-07-13T12:44:27;96635.78;;;24.39;38.68
81025;BME280;70500;50.292;6.666;2023-07-13T12:47:04;96638.78;;;24.35;38.25
81025;BME280;70500;50.292;6.666;2023-07-13T12:49:42;96635.28;;;24.34;38.12
81025;BME280;70500;50.292;6.666;2023-07-13T12:52:16;96640.78;;;24.40;37.89
81025;BME280;70500;50.292;6.666;2023-07-13T12:54:57;96654.03;;;24.42;38.90
81025;BME280;70500;50.292;6.666;2023-07-13T12:57:39;96639.75;;;24.43;38.67
81025;BME280;70500;50.292;6.666;2023-07-13T13:00:22;96640.00;;;24.45;39.18
81025;BME280;70500;50.292;6.666;2023-07-13T13:02:56;96648.47;;;24.47;39.31
81025;BME280;70500;50.292;6.666;2023-07-13T13:05:31;96645.22;;;24.49;38.99
81025;BME280;70500;50.292;6.666;2023-07-13T13:08:01;96641.44;;;24.52;39.46
81025;BME280;70500;50.292;6.666;2023-07-13T13:10:30;96642.94;;;24.53;39.56
81025;BME280;70500;50.292;6.666;2023-07-13T13:12:59;96644.69;;;24.56;39.09
81025;BME280;70500;50.292;6.666;2023-07-13T13:15:28;96640.44;;;24.55;39.21
81025;BME280;70500;50.292;6.666;2023-07-13T13:18:00;96640.91;;;24.59;39.81
81025;BME280;70500;50.292;6.666;2023-07-13T13:20:29;96641.66;;;24.59;38.97
81025;BME280;70500;50.292;6.666;2023-07-13T13:22:58;96633.16;;;24.57;39.67
81025;BME280;70500;50.292;6.666;2023-07-13T13:25:27;96634.63;;;24.64;39.32
81025;BME280;70500;50.292;6.666;2023-07-13T13:27:57;96640.13;;;24.64;39.54